Time;durP1;ratioP1;P1;durP2;ratioP2;P2;SDS_P1;SDS_P2;PMS_P1;PMS_P2;Temp;Humidity;BMP_temperature;BMP_pressure;BME280_temperature;BME280_humidity;BME280_pressure;Samples;Min_cycle;Max_cycle;Signal;HPM_P1;HPM_P2
2022/05/10 00:00:03;;;;;;;23.93;14.43;;;;;;;;;;7329389;19;154258;-18
2022/05/10 00:02:45;;;;;;;25.75;13.98;;;;;;;;;;7331525;19;153755;-19
2022/05/10 00:05:16;;;;;;;;;;;;;;;;;;7330035;19;161841;-19
2022/05/10 00:07:47;;;;;;;24.30;12.63;;;;;;;;;;7328677;19;162701;-19
2022/05/10 00:10:22;;;;;;;26.48;13.93;;;;;;;;;;7330745;19;154709;-19
2022/05/10 00:12:55;;;;;;;26.67;13.18;;;;;;;;;;7329416;19;153533;-18
2022/05/10 00:15:27;;;;;;;26.02;14.13;;;;;;;;;;7328204;19;162068;-18
2022/05/10 00:17:59;;;;;;;20.60;11.98;;;;;;;;;;7326584;19;162349;-18
2022/05/10 00:20:30;;;;;;;22.60;12.98;;;;;;;;;;7327578;19;154260;-18
2022/05/10 00:23:02;;;;;;;25.45;13.98;;;;;;;;;;7326904;19;153669;-18
2022/05/10 00:25:36;;;;;;;26.00;14.23;;;;;;;;;;7327671;19;161852;-18
2022/05/10 00:28:07;;;;;;;22.13;12.98;;;;;;;;;;7325677;19;162494;-18
2022/05/10 00:30:39;;;;;;;24.58;13.50;;;;;;;;;;7329916;19;154295;-19
2022/05/10 00:33:15;;;;;;;25.58;12.50;;;;;;;;;;7331104;19;153644;-18
2022/05/10 00:35:47;;;;;;;21.40;12.65;;;;;;;;;;7327193;19;161803;-19
2022/05/10 00:38:18;;;;;;;22.83;13.75;;;;;;;;;;7326358;19;162542;-18
2022/05/10 00:40:52;;;;;;;21.35;12.40;;;;;;;;;;7327073;19;154167;-18
2022/05/10 00:43:30;;;;;;;21.35;12.50;;;;;;;;;;7327892;19;153457;-18
2022/05/10 00:46:10;;;;;;;21.73;11.85;;;;;;;;;;7327458;19;161856;-19
2022/05/10 00:48:48;;;;;;;22.55;12.82;;;;;;;;;;7327013;19;162437;-18
2022/05/10 00:51:37;;;;;;;24.85;12.98;;;;;;;;;;7327554;19;154076;-18
2022/05/10 00:54:18;;;;;;;20.40;11.75;;;;;;;;;;7327691;19;153658;-19
2022/05/10 00:56:58;;;;;;;19.73;11.70;;;;;;;;;;7325607;19;161852;-18
2022/05/10 00:59:35;;;;;;;21.38;11.90;;;;;;;;;;7325657;19;162573;-19
2022/05/10 01:02:22;;;;;;;19.63;12.10;;;;;;;;;;7324031;19;154084;-18
2022/05/10 01:05:01;;;;;;;18.67;12.13;;;;;;;;;;7327021;19;153661;-20
2022/05/10 01:07:37;;;;;;;21.65;11.50;;;;;;;;;;7326151;19;162712;-19
2022/05/10 01:10:15;;;;;;;22.63;12.20;;;;;;;;;;7326400;19;162383;-19
2022/05/10 01:12:56;;;;;;;19.98;12.20;;;;;;;;;;7327863;19;154104;-19
2022/05/10 01:15:29;;;;;;;19.60;11.88;;;;;;;;;;7333913;19;153428;-20
2022/05/10 01:18:01;;;;;;;18.73;10.73;;;;;;;;;;7333526;19;161852;-19
2022/05/10 01:20:39;;;;;;;19.50;11.77;;;;;;;;;;7335393;19;162591;-19
2022/05/10 01:23:51;;;;;;;16.67;10.55;;;;;;;;;;7330821;19;156130;-19
2022/05/10 01:26:30;;;;;;;19.17;10.52;;;;;;;;;;7333054;19;153311;-20
2022/05/10 01:29:10;;;;;;;14.50;7.90;;;;;;;;;;7333522;19;161831;-19
2022/05/10 01:34:43;;;;;;;12.48;7.55;;;;;;;;;;7332777;19;154264;-18
2022/05/10 01:37:18;;;;;;;14.18;8.48;;;;;;;;;;7332857;19;153740;-19
2022/05/10 01:39:53;;;;;;;12.68;7.72;;;;;;;;;;7331690;19;162114;-25
2022/05/10 01:42:33;;;;;;;13.13;7.55;;;;;;;;;;7332155;19;162316;-19
2022/05/10 01:45:09;;;;;;;12.57;7.60;;;;;;;;;;7334122;19;153823;-18
2022/05/10 01:47:43;;;;;;;13.48;7.75;;;;;;;;;;7333881;19;153477;-18
2022/05/10 01:50:21;;;;;;;12.18;7.80;;;;;;;;;;7333523;19;161857;-21
2022/05/10 01:53:02;;;;;;;13.32;8.65;;;;;;;;;;7333457;19;162602;-19
2022/05/10 01:55:36;;;;;;;13.65;8.00;;;;;;;;;;7333388;19;154187;-19
2022/05/10 01:58:12;;;;;;;10.52;8.05;;;;;;;;;;7337084;19;153774;-19
2022/05/10 02:00:52;;;;;;;13.07;8.20;;;;;;;;;;7333045;19;161809;-18
2022/05/10 02:03:28;;;;;;;12.27;7.70;;;;;;;;;;7331011;19;162419;-18
2022/05/10 02:06:09;;;;;;;12.40;7.97;;;;;;;;;;7333457;19;154616;-18
2022/05/10 02:08:45;;;;;;;11.30;8.07;;;;;;;;;;7333414;19;153648;-19
2022/05/10 02:11:19;;;;;;;10.90;8.05;;;;;;;;;;7333267;19;161821;-18
2022/05/10 02:13:58;;;;;;;10.20;7.22;;;;;;;;;;7332847;19;162464;-18
2022/05/10 02:16:41;;;;;;;10.95;7.35;;;;;;;;;;7333390;19;154203;-19
2022/05/10 02:19:17;;;;;;;11.65;7.25;;;;;;;;;;7333248;19;153640;-19
2022/05/10 02:21:54;;;;;;;13.00;7.43;;;;;;;;;;7332354;19;162437;-19
2022/05/10 02:24:31;;;;;;;10.27;6.88;;;;;;;;;;7329217;19;162464;-19
2022/05/10 02:27:06;;;;;;;10.70;6.88;;;;;;;;;;7332997;19;153978;-19
2022/05/10 02:29:43;;;;;;;12.70;7.78;;;;;;;;;;7332909;19;153769;-18
2022/05/10 02:35:07;;;;;;;9.32;7.18;;;;;;;;;;7332368;19;162461;-18
2022/05/10 02:37:39;;;;;;;11.10;6.80;;;;;;;;;;7332563;19;154358;-18
2022/05/10 02:40:12;;;;;;;13.30;7.50;;;;;;;;;;7330023;19;153682;-19
2022/05/10 02:42:47;;;;;;;12.73;7.10;;;;;;;;;;7330811;19;161938;-18
2022/05/10 02:45:20;;;;;;;12.38;7.13;;;;;;;;;;7331973;19;162393;-18
2022/05/10 02:47:54;;;;;;;10.90;7.03;;;;;;;;;;7332284;19;154130;-18
2022/05/10 02:50:29;;;;;;;9.68;7.40;;;;;;;;;;7332311;19;153894;-18
2022/05/10 02:53:00;;;;;;;11.13;7.25;;;;;;;;;;7333729;19;163285;-19
2022/05/10 02:55:39;;;;;;;8.90;6.53;;;;;;;;;;7335313;19;162392;-19
2022/05/10 02:58:16;;;;;;;9.25;7.05;;;;;;;;;;7334964;19;154074;-19
2022/05/10 03:00:48;;;;;;;11.48;7.78;;;;;;;;;;7334229;19;153521;-19
2022/05/10 03:03:25;;;;;;;10.83;7.10;;;;;;;;;;7333406;19;161743;-19
2022/05/10 03:05:57;;;;;;;10.57;7.00;;;;;;;;;;7334775;19;162439;-19
2022/05/10 03:08:28;;;;;;;10.75;7.20;;;;;;;;;;7334946;19;154085;-19
2022/05/10 03:11:00;;;;;;;11.90;7.15;;;;;;;;;;7335537;19;153759;-19
2022/05/10 03:13:31;;;;;;;10.00;6.68;;;;;;;;;;7333061;19;161984;-18
2022/05/10 03:16:03;;;;;;;11.57;6.63;;;;;;;;;;7335005;19;162396;-19
2022/05/10 03:18:37;;;;;;;10.15;6.22;;;;;;;;;;7335001;19;154210;-20
2022/05/10 03:21:09;;;;;;;10.73;7.07;;;;;;;;;;7334643;19;153863;-19
2022/05/10 03:23:40;;;;;;;10.25;7.53;;;;;;;;;;7332678;19;161922;-21
2022/05/10 03:26:13;;;;;;;10.63;6.68;;;;;;;;;;7334426;19;162586;-18
2022/05/10 03:28:45;;;;;;;10.10;6.60;;;;;;;;;;7334203;19;154050;-19
2022/05/10 03:31:20;;;;;;;9.88;7.05;;;;;;;;;;7332876;19;153653;-19
2022/05/10 03:36:38;;;;;;;9.10;6.35;;;;;;;;;;7332067;19;162793;-19
2022/05/10 03:39:10;;;;;;;9.82;6.53;;;;;;;;;;7332889;19;154194;-19
2022/05/10 03:41:41;;;;;;;10.33;6.80;;;;;;;;;;7334571;19;153527;-19
2022/05/10 03:44:13;;;;;;;9.90;6.50;;;;;;;;;;7331811;19;162354;-19
2022/05/10 03:46:47;;;;;;;10.43;6.25;;;;;;;;;;7332153;19;162515;-19
2022/05/10 03:49:21;;;;;;;9.70;6.43;;;;;;;;;;7332962;19;154026;-19
2022/05/10 03:51:54;;;;;;;10.40;6.63;;;;;;;;;;7332892;19;153491;-17
2022/05/10 03:54:25;;;;;;;11.07;6.77;;;;;;;;;;7333215;19;161876;-18
2022/05/10 03:56:58;;;;;;;8.63;6.88;;;;;;;;;;7331859;19;162343;-17
2022/05/10 03:59:29;;;;;;;8.02;6.10;;;;;;;;;;7333479;19;153999;-18
2022/05/10 04:02:01;;;;;;;7.32;5.78;;;;;;;;;;7334692;19;153977;-17
2022/05/10 04:04:35;;;;;;;9.60;6.50;;;;;;;;;;7327458;19;161625;-17
2022/05/10 04:07:07;;;;;;;7.97;6.30;;;;;;;;;;7329664;19;162535;-17
2022/05/10 04:09:39;;;;;;;9.38;6.32;;;;;;;;;;7330115;19;154191;-17
2022/05/10 04:12:12;;;;;;;9.10;6.43;;;;;;;;;;7329996;19;153520;-18
2022/05/10 04:14:43;;;;;;;8.38;6.22;;;;;;;;;;7329417;19;161867;-18
2022/05/10 04:17:14;;;;;;;10.05;6.47;;;;;;;;;;7329447;19;162525;-18
2022/05/10 04:19:48;;;;;;;9.63;6.43;;;;;;;;;;7329184;19;154119;-18
2022/05/10 04:22:20;;;;;;;9.50;5.97;;;;;;;;;;7333525;19;153677;-18
2022/05/10 04:25:03;;;;;;;8.57;6.63;;;;;;;;;;7326286;19;162090;-19
2022/05/10 04:27:35;;;;;;;7.60;6.22;;;;;;;;;;7329358;19;162470;-17
2022/05/10 04:30:08;;;;;;;8.70;6.07;;;;;;;;;;7329251;19;154171;-18
2022/05/10 04:32:41;;;;;;;8.52;6.20;;;;;;;;;;7329112;19;153639;-19
2022/05/10 04:35:15;;;;;;;7.85;6.22;;;;;;;;;;7329446;19;162536;-18
2022/05/10 04:37:47;;;;;;;7.07;6.25;;;;;;;;;;7328843;19;162551;-18
2022/05/10 04:43:05;;;;;;;7.70;6.25;;;;;;;;;;7328815;19;153520;-18
2022/05/10 04:45:36;;;;;;;8.90;5.82;;;;;;;;;;7328475;19;161970;-18
2022/05/10 04:48:07;;;;;;;9.10;6.55;;;;;;;;;;7330230;19;162489;-18
2022/05/10 04:50:41;;;;;;;7.35;5.90;;;;;;;;;;7335346;19;154128;-18
2022/05/10 04:53:17;;;;;;;6.95;5.75;;;;;;;;;;7335477;19;153490;-18
2022/05/10 04:55:49;;;;;;;9.05;6.03;;;;;;;;;;7334759;19;162154;-19
2022/05/10 04:58:21;;;;;;;8.63;6.18;;;;;;;;;;7334902;19;162368;-18
2022/05/10 05:00:52;;;;;;;8.40;6.22;;;;;;;;;;7334026;19;154193;-18
2022/05/10 05:03:23;;;;;;;7.40;6.55;;;;;;;;;;7335087;19;153484;-18
2022/05/10 05:05:57;;;;;;;7.97;5.85;;;;;;;;;;7334799;19;161863;-18
2022/05/10 05:08:28;;;;;;;8.27;6.07;;;;;;;;;;7334844;19;162603;-18
2022/05/10 05:11:00;;;;;;;6.65;5.95;;;;;;;;;;7335023;19;154126;-18
2022/05/10 05:13:31;;;;;;;7.40;5.95;;;;;;;;;;7335041;19;153580;-18
2022/05/10 05:16:02;;;;;;;6.72;5.75;;;;;;;;;;7333779;19;161961;-19
2022/05/10 05:18:34;;;;;;;7.00;5.88;;;;;;;;;;7334584;19;163001;-18
2022/05/10 05:21:08;;;;;;;9.73;6.15;;;;;;;;;;7334766;19;154271;-19
2022/05/10 05:23:40;;;;;;;8.00;5.97;;;;;;;;;;7334405;19;153554;-18
2022/05/10 05:26:12;;;;;;;8.93;6.68;;;;;;;;;;7334167;19;162092;-18
2022/05/10 05:28:43;;;;;;;7.37;5.73;;;;;;;;;;7334165;19;162404;-24
2022/05/10 05:31:15;;;;;;;6.90;6.05;;;;;;;;;;7334696;19;154038;-18
2022/05/10 05:33:49;;;;;;;6.82;5.68;;;;;;;;;;7334472;19;153502;-19
2022/05/10 05:36:23;;;;;;;12.20;6.53;;;;;;;;;;7333725;19;161819;-18
2022/05/10 05:38:54;;;;;;;10.38;7.32;;;;;;;;;;7333453;19;162369;-19
2022/05/10 05:41:26;;;;;;;8.90;7.05;;;;;;;;;;7331935;19;154063;-18
2022/05/10 05:43:57;;;;;;;9.63;8.30;;;;;;;;;;7333769;19;153514;-18
2022/05/10 05:46:28;;;;;;;8.95;7.00;;;;;;;;;;7337040;19;161845;-18
2022/05/10 05:49:01;;;;;;;11.43;8.20;;;;;;;;;;7333390;19;162425;-17
2022/05/10 05:51:35;;;;;;;9.38;8.45;;;;;;;;;;7333742;19;154176;-17
2022/05/10 05:54:08;;;;;;;8.90;7.75;;;;;;;;;;7332355;19;153597;-18
2022/05/10 05:56:40;;;;;;;9.70;8.30;;;;;;;;;;7330677;19;161873;-17
2022/05/10 05:59:11;;;;;;;10.90;8.65;;;;;;;;;;7332276;19;162446;-18
2022/05/10 06:01:43;;;;;;;12.70;9.40;;;;;;;;;;7333303;19;154110;-18
2022/05/10 06:04:14;;;;;;;12.52;8.90;;;;;;;;;;7330979;19;153566;-18
2022/05/10 06:06:48;;;;;;;11.25;7.57;;;;;;;;;;7332703;19;161827;-20
2022/05/10 06:09:22;;;;;;;14.15;8.68;;;;;;;;;;7332562;19;162376;-18
2022/05/10 06:11:53;;;;;;;10.65;8.40;;;;;;;;;;7331893;19;154051;-19
2022/05/10 06:14:25;;;;;;;10.43;8.32;;;;;;;;;;7333117;19;153674;-19
2022/05/10 06:16:58;;;;;;;11.45;8.18;;;;;;;;;;7332630;19;161808;-19
2022/05/10 06:19:30;;;;;;;9.52;7.90;;;;;;;;;;7332464;19;162368;-18
2022/05/10 06:22:04;;;;;;;12.37;8.33;;;;;;;;;;7332948;19;154039;-18
2022/05/10 06:24:35;;;;;;;13.02;7.63;;;;;;;;;;7332386;19;153460;-19
2022/05/10 06:27:13;;;;;;;11.48;8.02;;;;;;;;;;7332321;19;161875;-19
2022/05/10 06:29:45;;;;;;;10.88;7.22;;;;;;;;;;7334055;19;162477;-19
2022/05/10 06:32:23;;;;;;;13.50;8.17;;;;;;;;;;7332712;19;154112;-18
2022/05/10 06:34:58;;;;;;;9.07;7.30;;;;;;;;;;7332548;19;153562;-18
2022/05/10 06:40:17;;;;;;;11.70;7.13;;;;;;;;;;7331199;19;162453;-18
2022/05/10 06:42:48;;;;;;;10.27;7.72;;;;;;;;;;7332246;19;154037;-18
2022/05/10 06:45:21;;;;;;;13.63;7.43;;;;;;;;;;7329893;19;153509;-18
2022/05/10 06:47:53;;;;;;;10.13;7.68;;;;;;;;;;7331805;19;161819;-18
2022/05/10 06:50:26;;;;;;;8.50;7.50;;;;;;;;;;7331509;19;162381;-17
2022/05/10 06:53:01;;;;;;;9.63;7.45;;;;;;;;;;7332284;19;154633;-18
2022/05/10 06:55:34;;;;;;;11.10;7.38;;;;;;;;;;7330675;19;153526;-18
2022/05/10 06:58:06;;;;;;;7.88;6.60;;;;;;;;;;7331654;19;161824;-18
2022/05/10 07:00:39;;;;;;;9.65;6.43;;;;;;;;;;7331596;19;162574;-18
2022/05/10 07:03:12;;;;;;;8.02;6.68;;;;;;;;;;7331733;19;154290;-17
2022/05/10 07:05:44;;;;;;;;;;;;;;;;;;7331062;19;153662;-18
2022/05/10 07:08:18;;;;;;;12.55;7.38;;;;;;;;;;7331522;19;162332;-18
2022/05/10 07:10:49;;;;;;;10.52;7.05;;;;;;;;;;7328048;19;162599;-19
2022/05/10 07:13:23;;;;;;;12.55;7.82;;;;;;;;;;7331358;19;154077;-18
2022/05/10 07:15:55;;;;;;;11.00;7.90;;;;;;;;;;7331395;19;153885;-18
2022/05/10 07:18:26;;;;;;;11.40;8.13;;;;;;;;;;7330960;19;161971;-18
2022/05/10 07:20:58;;;;;;;9.73;7.40;;;;;;;;;;7330741;19;162905;-18
2022/05/10 07:23:33;;;;;;;12.85;7.85;;;;;;;;;;7332106;19;154044;-18
2022/05/10 07:26:06;;;;;;;9.23;7.05;;;;;;;;;;7331320;19;153528;-18
2022/05/10 07:28:40;;;;;;;10.77;6.80;;;;;;;;;;7335012;19;161959;-18
2022/05/10 07:31:15;;;;;;;9.30;7.30;;;;;;;;;;7330690;19;162385;-18
2022/05/10 07:33:46;;;;;;;15.95;7.03;;;;;;;;;;7333011;19;154234;-18
2022/05/10 07:36:33;;;;;;;12.52;6.45;;;;;;;;;;7329023;19;153680;-19
2022/05/10 07:39:09;;;;;;;11.73;6.65;;;;;;;;;;7332797;19;161768;-18
2022/05/10 07:41:41;;;;;;;12.68;6.75;;;;;;;;;;7332638;19;162534;-18
2022/05/10 07:44:14;;;;;;;13.67;7.37;;;;;;;;;;7333284;19;154262;-18
2022/05/10 07:46:45;;;;;;;7.07;6.38;;;;;;;;;;7328767;19;153643;-18
2022/05/10 07:49:16;;;;;;;10.75;6.35;;;;;;;;;;7329448;19;162056;-19
2022/05/10 07:51:47;;;;;;;7.90;6.38;;;;;;;;;;7329318;19;162615;-18
2022/05/10 07:54:23;;;;;;;11.32;5.95;;;;;;;;;;7331033;19;153838;-18
2022/05/10 07:56:55;;;;;;;9.50;6.80;;;;;;;;;;7330731;19;153615;-18
2022/05/10 07:59:28;;;;;;;9.80;6.38;;;;;;;;;;7330296;19;161825;-18
2022/05/10 08:02:00;;;;;;;13.73;6.10;;;;;;;;;;7328713;19;162573;-18
2022/05/10 08:04:31;;;;;;;10.57;6.70;;;;;;;;;;7330421;19;154119;-18
2022/05/10 08:07:06;;;;;;;9.02;6.18;;;;;;;;;;7326860;19;153511;-18
2022/05/10 08:09:40;;;;;;;14.30;6.43;;;;;;;;;;7328554;19;162145;-18
2022/05/10 08:12:12;;;;;;;8.98;6.20;;;;;;;;;;7328874;19;162639;-17
2022/05/10 08:14:43;;;;;;;9.02;5.72;;;;;;;;;;7328844;19;154199;-18
2022/05/10 08:17:14;;;;;;;6.53;5.88;;;;;;;;;;7330123;19;153897;-18
2022/05/10 08:19:46;;;;;;;11.07;6.15;;;;;;;;;;7329576;19;161826;-18
2022/05/10 08:22:17;;;;;;;6.97;5.35;;;;;;;;;;7329298;19;163711;-18
2022/05/10 08:24:53;;;;;;;5.78;5.25;;;;;;;;;;7329846;19;154121;-18
2022/05/10 08:27:24;;;;;;;7.80;6.05;;;;;;;;;;7329628;19;154110;-19
2022/05/10 08:29:56;;;;;;;10.20;5.78;;;;;;;;;;7328142;19;161871;-22
2022/05/10 08:32:27;;;;;;;6.70;5.75;;;;;;;;;;7329275;19;162631;-18
2022/05/10 08:34:59;;;;;;;7.90;5.70;;;;;;;;;;7328136;19;154172;-18
2022/05/10 08:37:30;;;;;;;7.80;5.45;;;;;;;;;;7329070;19;153944;-17
2022/05/10 08:40:04;;;;;;;9.32;5.65;;;;;;;;;;7328576;19;161882;-18
2022/05/10 08:42:41;;;;;;;6.13;5.53;;;;;;;;;;7328260;19;162628;-18
2022/05/10 08:45:13;;;;;;;6.47;5.28;;;;;;;;;;7329092;19;154192;-18
2022/05/10 08:47:45;;;;;;;8.07;5.90;;;;;;;;;;7325360;19;153773;-18
2022/05/10 08:50:18;;;;;;;6.93;5.82;;;;;;;;;;7328560;19;161804;-18
2022/05/10 08:53:07;;;;;;;6.57;4.93;;;;;;;;;;7328552;19;162516;-17
2022/05/10 08:55:46;;;;;;;6.15;5.20;;;;;;;;;;7328741;19;154187;-18
2022/05/10 08:58:54;;;;;;;8.40;5.80;;;;;;;;;;7328609;19;153379;-19
2022/05/10 09:01:37;;;;;;;8.52;5.57;;;;;;;;;;7327253;19;161805;-19
2022/05/10 09:04:18;;;;;;;7.20;5.63;;;;;;;;;;7328151;19;162627;-19
2022/05/10 09:06:57;;;;;;;7.63;5.55;;;;;;;;;;7327690;19;154186;-19
2022/05/10 09:09:31;;;;;;;9.57;5.38;;;;;;;;;;7328430;19;153502;-20
2022/05/10 09:12:18;;;;;;;6.43;5.78;;;;;;;;;;7327980;19;161765;-20
2022/05/10 09:14:54;;;;;;;5.68;4.75;;;;;;;;;;7327758;19;162561;-20
2022/05/10 09:17:29;;;;;;;6.32;5.40;;;;;;;;;;7328104;19;154005;-17
2022/05/10 09:20:01;;;;;;;9.32;5.55;;;;;;;;;;7328009;19;153905;-19
2022/05/10 09:23:19;;;;;;;5.30;4.80;;;;;;;;;;7327378;19;161948;-18
2022/05/10 09:25:51;;;;;;;7.65;5.53;;;;;;;;;;7327569;19;162456;-17
2022/05/10 09:28:32;;;;;;;5.63;4.95;;;;;;;;;;7324448;19;154214;-18
2022/05/10 09:37:20;;;;;;;8.35;5.13;;;;;;;;;;7334280;19;162562;-19
2022/05/10 09:40:06;;;;;;;6.13;5.45;;;;;;;;;;7335330;19;154728;-18
2022/05/10 09:42:40;;;;;;;6.07;5.30;;;;;;;;;;7334984;19;153733;-18
2022/05/10 09:45:18;;;;;;;7.07;5.30;;;;;;;;;;7333857;19;161861;-19
2022/05/10 09:48:02;;;;;;;5.72;5.15;;;;;;;;;;7334121;19;162646;-18
2022/05/10 09:50:39;;;;;;;5.67;5.13;;;;;;;;;;7335207;19;154055;-18
2022/05/10 09:53:18;;;;;;;8.38;5.22;;;;;;;;;;7335627;19;153530;-18
2022/05/10 09:56:00;;;;;;;5.75;4.82;;;;;;;;;;7331181;19;161755;-19
2022/05/10 09:58:34;;;;;;;8.45;5.32;;;;;;;;;;7333969;19;162440;-18
2022/05/10 10:01:11;;;;;;;6.85;4.88;;;;;;;;;;7333304;19;154158;-19
2022/05/10 10:03:45;;;;;;;6.40;5.47;;;;;;;;;;7336019;19;153734;-19
2022/05/10 10:06:20;;;;;;;5.47;4.72;;;;;;;;;;7333279;19;161816;-20
2022/05/10 10:08:57;;;;;;;7.78;5.07;;;;;;;;;;7330609;19;162451;-18
2022/05/10 10:11:29;;;;;;;;;;;;;;;;;;7332842;19;154229;-18
2022/05/10 10:14:03;;;;;;;7.88;4.75;;;;;;;;;;7330985;19;153742;-18
2022/05/10 10:16:40;;;;;;;6.82;5.05;;;;;;;;;;7332352;19;161968;-19
2022/05/10 10:19:14;;;;;;;5.43;4.60;;;;;;;;;;7332210;19;162566;-20
2022/05/10 10:21:52;;;;;;;6.75;5.05;;;;;;;;;;7332454;19;154255;-19
2022/05/10 10:24:28;;;;;;;4.97;4.47;;;;;;;;;;7332772;19;153738;-19
2022/05/10 10:27:06;;;;;;;5.10;4.32;;;;;;;;;;7331388;19;162107;-19
2022/05/10 10:29:46;;;;;;;5.30;4.75;;;;;;;;;;7331830;19;162557;-19
2022/05/10 10:32:25;;;;;;;5.45;4.93;;;;;;;;;;7335243;19;154067;-19
2022/05/10 10:35:04;;;;;;;5.22;4.35;;;;;;;;;;7332875;19;153523;-19
2022/05/10 10:37:40;;;;;;;6.25;4.80;;;;;;;;;;7332291;19;161917;-19
2022/05/10 10:40:25;;;;;;;5.82;4.30;;;;;;;;;;7330380;19;162599;-19
2022/05/10 10:43:02;;;;;;;6.88;5.10;;;;;;;;;;7331871;19;154305;-19
2022/05/10 10:45:40;;;;;;;6.25;4.38;;;;;;;;;;7329118;19;153586;-19
2022/05/10 10:48:35;;;;;;;6.80;5.18;;;;;;;;;;7331406;19;162906;-20
2022/05/10 10:51:06;;;;;;;4.95;4.50;;;;;;;;;;7331576;19;162360;-19
2022/05/10 10:53:39;;;;;;;7.22;4.63;;;;;;;;;;7336776;19;154058;-19
2022/05/10 10:56:25;;;;;;;;;;;;;;;;;;7332551;19;153731;-19
2022/05/10 10:59:13;;;;;;;4.88;4.25;;;;;;;;;;7331411;19;162048;-19
2022/05/10 11:02:09;;;;;;;5.45;4.70;;;;;;;;;;7334105;19;162366;-20
2022/05/10 11:05:09;;;;;;;5.68;4.63;;;;;;;;;;7331108;19;154086;-19
2022/05/10 11:07:53;;;;;;;6.13;4.55;;;;;;;;;;7330117;19;153832;-19
2022/05/10 11:10:42;;;;;;;6.40;4.70;;;;;;;;;;7329572;19;161790;-21
2022/05/10 11:13:21;;;;;;;5.28;4.47;;;;;;;;;;7330740;19;162343;-19
2022/05/10 11:16:05;;;;;;;6.97;5.05;;;;;;;;;;7332520;19;154239;-19
2022/05/10 11:18:50;;;;;;;5.55;4.07;;;;;;;;;;7329666;19;153536;-19
2022/05/10 11:21:41;;;;;;;6.05;4.28;;;;;;;;;;7329584;19;161971;-19
2022/05/10 11:24:18;;;;;;;4.47;4.07;;;;;;;;;;7331095;19;162453;-19
2022/05/10 11:27:05;;;;;;;4.53;4.20;;;;;;;;;;7328975;19;154393;-17
2022/05/10 11:29:50;;;;;;;4.88;4.30;;;;;;;;;;7328628;19;153706;-18
2022/05/10 11:32:31;;;;;;;5.90;4.43;;;;;;;;;;7328557;19;162105;-18
2022/05/10 11:35:19;;;;;;;4.32;3.92;;;;;;;;;;7329421;19;162716;-18
2022/05/10 11:38:00;;;;;;;5.88;4.55;;;;;;;;;;7329515;19;154030;-17
2022/05/10 11:40:45;;;;;;;5.15;4.60;;;;;;;;;;7331418;19;153545;-18
2022/05/10 11:43:36;;;;;;;4.93;4.22;;;;;;;;;;7327970;19;161914;-18
2022/05/10 11:46:35;;;;;;;5.07;4.57;;;;;;;;;;7333394;19;162520;-18
2022/05/10 11:49:37;;;;;;;6.00;4.18;;;;;;;;;;7325696;19;154030;-17
2022/05/10 11:52:33;;;;;;;13.60;4.07;;;;;;;;;;7333272;19;154359;-18
2022/05/10 11:55:23;;;;;;;4.82;3.83;;;;;;;;;;7332794;19;161860;-18
2022/05/10 11:58:00;;;;;;;10.18;4.28;;;;;;;;;;7329224;19;162361;-18
2022/05/10 12:00:54;;;;;;;4.70;4.13;;;;;;;;;;7329316;19;154369;-18
2022/05/10 12:03:54;;;;;;;4.63;4.23;;;;;;;;;;7331979;19;153694;-21
2022/05/10 12:06:43;;;;;;;5.72;3.88;;;;;;;;;;7329823;19;161875;-19
2022/05/10 12:09:39;;;;;;;5.05;4.05;;;;;;;;;;7328254;19;162577;-20
2022/05/10 12:12:48;;;;;;;4.70;4.25;;;;;;;;;;7329065;19;154141;-20
2022/05/10 12:21:23;;;;;;;6.68;4.32;;;;;;;;;;7328394;19;162337;-20
2022/05/10 12:24:11;;;;;;;4.47;3.97;;;;;;;;;;7328394;19;154079;-19
2022/05/10 12:26:49;;;;;;;4.68;3.67;;;;;;;;;;7330629;19;153597;-18
2022/05/10 12:30:10;;;;;;;5.10;3.83;;;;;;;;;;7327970;19;161674;-18
2022/05/10 12:32:47;;;;;;;6.63;3.55;;;;;;;;;;7332663;19;162338;-19
2022/05/10 12:35:37;;;;;;;5.57;3.53;;;;;;;;;;7327878;19;154676;-19
2022/05/10 12:38:37;;;;;;;6.53;3.58;;;;;;;;;;7327259;19;153681;-25
2022/05/10 12:41:22;;;;;;;4.05;3.72;;;;;;;;;;7325959;19;161879;-19
2022/05/10 12:44:16;;;;;;;6.35;3.45;;;;;;;;;;7327424;19;162388;-19
2022/05/10 12:47:04;;;;;;;4.75;3.85;;;;;;;;;;7328185;19;154367;-19
2022/05/10 12:49:51;;;;;;;6.70;4.28;;;;;;;;;;7325318;19;153288;-19
2022/05/10 12:52:43;;;;;;;8.32;3.50;;;;;;;;;;7328573;19;162118;-19
2022/05/10 12:55:20;;;;;;;3.93;3.63;;;;;;;;;;7327670;19;162427;-19
2022/05/10 12:57:58;;;;;;;3.60;3.30;;;;;;;;;;7327652;19;154068;-19
2022/05/10 13:00:33;;;;;;;4.47;3.03;;;;;;;;;;7329683;19;153615;-18
2022/05/10 13:03:12;;;;;;;5.78;4.00;;;;;;;;;;7327078;19;161811;-18
2022/05/10 13:05:58;;;;;;;7.88;3.60;;;;;;;;;;7326967;19;162680;-18
2022/05/10 13:08:53;;;;;;;7.18;3.60;;;;;;;;;;7327710;19;154070;-18
2022/05/10 13:11:44;;;;;;;3.55;3.13;;;;;;;;;;7336063;19;153599;-18
2022/05/10 13:14:17;;;;;;;4.03;3.40;;;;;;;;;;7337716;19;161979;-18
2022/05/10 13:16:51;;;;;;;3.60;3.30;;;;;;;;;;7333764;19;162574;-18
2022/05/10 13:19:27;;;;;;;5.47;3.70;;;;;;;;;;7333900;19;154249;-18
2022/05/10 13:22:01;;;;;;;5.88;3.53;;;;;;;;;;7334085;19;153688;-20
2022/05/10 13:24:32;;;;;;;7.13;3.75;;;;;;;;;;7334750;19;161815;-18
2022/05/10 13:27:06;;;;;;;10.90;4.03;;;;;;;;;;7334414;19;162438;-18
2022/05/10 13:29:48;;;;;;;10.73;3.72;;;;;;;;;;7332948;19;154215;-19
2022/05/10 13:32:37;;;;;;;10.27;4.18;;;;;;;;;;7334141;19;153507;-19
2022/05/10 13:35:16;;;;;;;8.95;4.47;;;;;;;;;;7333188;19;161918;-18
2022/05/10 13:37:56;;;;;;;8.85;4.57;;;;;;;;;;7333803;19;162410;-18
2022/05/10 13:40:31;;;;;;;9.85;4.75;;;;;;;;;;7333229;19;154056;-18
2022/05/10 13:43:12;;;;;;;8.65;4.55;;;;;;;;;;7334599;19;153577;-19
2022/05/10 13:45:44;;;;;;;16.20;8.32;;;;;;;;;;7337384;19;162043;-19
2022/05/10 13:48:17;;;;;;;65.03;28.90;;;;;;;;;;7331729;19;162399;-18
2022/05/10 13:50:51;;;;;;;;;;;;;;;;;;7332008;19;154256;-18
2022/05/10 13:53:31;;;;;;;57.08;28.13;;;;;;;;;;7334247;19;153225;-19
2022/05/10 13:56:03;;;;;;;70.28;31.08;;;;;;;;;;7333596;19;161952;-19
2022/05/10 13:58:36;;;;;;;62.67;29.75;;;;;;;;;;7333472;19;162399;-19
2022/05/10 14:01:09;;;;;;;65.28;26.85;;;;;;;;;;7334166;19;154080;-19
2022/05/10 14:03:40;;;;;;;57.13;26.00;;;;;;;;;;7333889;19;153824;-19
2022/05/10 14:06:16;;;;;;;;;;;;;;;;;;7334151;19;161922;-19
2022/05/10 14:08:49;;;;;;;49.75;23.80;;;;;;;;;;7333462;19;163769;-19
2022/05/10 14:11:22;;;;;;;58.92;24.27;;;;;;;;;;7331289;19;154291;-19
2022/05/10 14:13:56;;;;;;;57.22;25.02;;;;;;;;;;7333645;19;153514;-18
2022/05/10 14:16:32;;;;;;;44.03;20.23;;;;;;;;;;7333316;19;162374;-19
2022/05/10 14:19:08;;;;;;;42.58;20.15;;;;;;;;;;7332946;19;163046;-18
2022/05/10 14:21:48;;;;;;;45.33;20.70;;;;;;;;;;7332997;19;154026;-18
2022/05/10 14:24:20;;;;;;;46.33;19.25;;;;;;;;;;7333254;19;153884;-18
2022/05/10 14:26:52;;;;;;;38.73;19.53;;;;;;;;;;7331711;19;162154;-19
2022/05/10 14:29:35;;;;;;;35.45;18.58;;;;;;;;;;7335717;19;162387;-18
2022/05/10 14:32:11;;;;;;;39.10;17.63;;;;;;;;;;7333445;19;154092;-18
2022/05/10 14:34:54;;;;;;;36.72;17.10;;;;;;;;;;7332668;19;153630;-18
2022/05/10 14:37:36;;;;;;;33.38;15.95;;;;;;;;;;7332395;19;161826;-19
2022/05/10 14:40:25;;;;;;;31.70;15.43;;;;;;;;;;7332149;19;162503;-18
2022/05/10 14:43:00;;;;;;;36.60;15.10;;;;;;;;;;7330364;19;154134;-18
2022/05/10 14:45:42;;;;;;;26.13;13.77;;;;;;;;;;7330297;19;153775;-18
2022/05/10 14:48:27;;;;;;;28.85;14.35;;;;;;;;;;7329942;19;162072;-18
2022/05/10 14:51:02;;;;;;;25.67;13.40;;;;;;;;;;7328391;19;162717;-22
2022/05/10 14:53:39;;;;;;;24.38;12.65;;;;;;;;;;7329784;19;154080;-19
2022/05/10 14:56:20;;;;;;;28.73;13.40;;;;;;;;;;7329644;19;154027;-23
2022/05/10 14:58:54;;;;;;;26.48;12.95;;;;;;;;;;7329287;19;162023;-27
2022/05/10 15:01:34;;;;;;;25.42;13.23;;;;;;;;;;7329320;19;162400;-19
2022/05/10 15:04:13;;;;;;;25.27;11.98;;;;;;;;;;7329621;19;154162;-19
2022/05/10 15:06:46;;;;;;;21.77;11.35;;;;;;;;;;7328068;19;153784;-18
2022/05/10 15:09:29;;;;;;;24.83;11.05;;;;;;;;;;7328843;19;162067;-19
2022/05/10 15:14:47;;;;;;;20.23;10.00;;;;;;;;;;7329059;19;154053;-19
2022/05/10 15:17:20;;;;;;;20.77;9.70;;;;;;;;;;7328838;19;154120;-18
2022/05/10 15:19:51;;;;;;;18.85;9.10;;;;;;;;;;7328793;19;161925;-18
2022/05/10 15:22:22;;;;;;;17.77;9.82;;;;;;;;;;7328534;19;162370;-18
2022/05/10 15:24:56;;;;;;;15.85;8.57;;;;;;;;;;7328993;19;153838;-18
2022/05/10 15:27:28;;;;;;;20.38;9.77;;;;;;;;;;7328790;19;153695;-19
2022/05/10 15:30:01;;;;;;;14.07;8.10;;;;;;;;;;7328262;19;162212;-19
2022/05/10 15:32:32;;;;;;;14.13;8.52;;;;;;;;;;7324774;19;162446;-19
2022/05/10 15:35:05;;;;;;;13.85;7.13;;;;;;;;;;7328676;19;154072;-20
2022/05/10 15:37:36;;;;;;;17.08;7.78;;;;;;;;;;7328761;19;153577;-18
2022/05/10 15:40:13;;;;;;;11.85;7.38;;;;;;;;;;7169544;19;3052220;-18
2022/05/10 15:42:44;;;;;;;15.15;7.70;;;;;;;;;;7329243;19;162785;-18
2022/05/10 15:45:17;;;;;;;13.05;7.30;;;;;;;;;;7330642;19;154090;-18
2022/05/10 15:47:50;;;;;;;10.37;6.67;;;;;;;;;;7330539;19;153546;-19